Time;durP1;ratioP1;P1;durP2;ratioP2;P2;SDS_P1;SDS_P2;PMS_P1;PMS_P2;Temp;Humidity;BMP_temperature;BMP_pressure;BME280_temperature;BME280_humidity;BME280_pressure;Samples;Min_cycle;Max_cycle;Signal;HPM_P1;HPM_P2
2023/02/14 00:02:39;;;;;;;106.20;31.23;;;0.30;99.90;;;;;;20663850;28;20623;-76
2023/02/14 00:12:40;;;;;;;97.60;31.65;;;0.20;99.90;;;;;;20692861;28;20096;-75
2023/02/14 00:22:41;;;;;;;107.15;32.65;;;0.30;99.90;;;;;;20683479;28;20404;-75
2023/02/14 00:32:42;;;;;;;92.68;33.75;;;0.50;99.90;;;;;;20679175;28;20038;-75
2023/02/14 00:42:43;;;;;;;99.60;32.25;;;0.60;99.90;;;;;;20681864;28;20049;-75
2023/02/14 00:52:43;;;;;;;125.07;32.95;;;0.80;99.90;;;;;;20660000;28;20026;-75
2023/02/14 01:02:44;;;;;;;101.55;31.15;;;0.80;99.90;;;;;;20688324;28;20073;-76
2023/02/14 01:12:45;;;;;;;116.30;31.40;;;0.80;99.90;;;;;;20665324;28;20480;-75
2023/02/14 01:22:46;;;;;;;130.27;32.10;;;0.80;99.90;;;;;;20662960;28;20085;-75
2023/02/14 01:32:47;;;;;;;113.32;31.92;;;0.80;99.90;;;;;;20688987;28;20026;-75
2023/02/14 01:42:47;;;;;;;139.30;31.90;;;0.70;99.90;;;;;;20693810;28;20037;-75
2023/02/14 01:53:00;;;;;;;123.55;30.83;;;0.70;99.90;;;;;;20722455;28;20030;-75
2023/02/14 02:03:04;;;;;;;114.20;32.97;;;0.60;99.90;;;;;;20712229;28;20042;-75
2023/02/14 02:13:07;;;;;;;122.38;32.30;;;0.50;99.90;;;;;;20743385;28;20034;-75
2023/02/14 02:23:27;;;;;;;108.28;27.83;;;0.50;99.90;;;;;;20690445;28;20054;-75
2023/02/14 02:33:31;;;;;;;94.22;30.77;;;0.50;99.90;;;;;;20704936;28;20400;-74
2023/02/14 02:43:47;;;;;;;106.32;30.10;;;0.50;99.90;;;;;;20742029;28;20117;-75
2023/02/14 02:54:02;;;;;;;117.85;29.30;;;0.50;99.90;;;;;;20699731;28;20083;-75
2023/02/14 03:14:55;;;;;;;105.45;31.15;;;0.40;99.90;;;;;;20712183;28;20034;-75
2023/02/14 03:25:07;;;;;;;117.00;30.52;;;0.30;99.90;;;;;;20701418;28;20033;-75
2023/02/14 03:35:30;;;;;;;130.98;32.75;;;0.30;99.90;;;;;;20755843;28;20612;-75
2023/02/14 03:46:03;;;;;;;115.30;26.98;;;0.30;99.90;;;;;;20728025;28;20037;-76
2023/02/14 03:56:33;;;;;;;120.45;30.15;;;0.30;99.90;;;;;;20704647;28;20049;-76
2023/02/14 04:06:34;;;;;;;96.05;27.23;;;0.20;99.90;;;;;;20729406;28;20176;-73
2023/02/14 04:19:21;;;;;;;98.70;29.77;;;0.10;99.90;;;;;;20749738;28;20038;-75
2023/02/14 04:27:11;;;;;;;119.07;30.50;;;-0.10;99.90;;;;;;20718292;28;20048;-75
2023/02/14 04:37:12;;;;;;;121.10;32.97;;;-0.10;99.90;;;;;;20704245;28;20110;-75
2023/02/14 04:47:13;;;;;;;128.30;34.15;;;-0.10;99.90;;;;;;20699050;28;20030;-76
2023/02/14 04:57:14;;;;;;;135.65;33.65;;;-0.10;99.90;;;;;;20665724;28;20022;-75
2023/02/14 05:07:15;;;;;;;156.60;32.83;;;-0.20;99.90;;;;;;20645568;28;20088;-76
2023/02/14 05:17:16;;;;;;;126.85;30.13;;;-0.10;99.90;;;;;;20664858;28;20124;-76
2023/02/14 05:27:16;;;;;;;124.93;29.08;;;-0.20;99.90;;;;;;20682433;28;20042;-77
2023/02/14 05:37:17;;;;;;;128.60;29.85;;;-0.10;99.90;;;;;;20675178;28;20065;-76
2023/02/14 05:47:18;;;;;;;111.60;30.13;;;-0.10;99.90;;;;;;20667993;28;20034;-76
2023/02/14 05:57:19;;;;;;;132.38;32.03;;;-0.20;99.90;;;;;;20663431;28;20114;-77
2023/02/14 06:07:20;;;;;;;125.75;30.92;;;-0.20;99.90;;;;;;20665886;28;20041;-76
2023/02/14 06:17:20;;;;;;;122.75;30.40;;;-0.30;99.90;;;;;;20715524;28;20050;-77
2023/02/14 06:27:21;;;;;;;148.20;34.50;;;-0.20;99.90;;;;;;20666402;28;20118;-76
2023/02/14 06:37:22;;;;;;;145.43;33.35;;;-0.20;99.90;;;;;;20706094;28;20027;-77
2023/02/14 06:47:23;;;;;;;138.45;35.70;;;-0.20;99.90;;;;;;20673216;28;20034;-76
2023/02/14 06:57:23;;;;;;;156.68;34.75;;;-0.10;99.90;;;;;;20716101;28;20031;-76
2023/02/14 07:07:24;;;;;;;117.05;30.52;;;0.00;99.90;;;;;;20731068;28;20038;-76
2023/02/14 07:17:25;;;;;;;106.50;29.70;;;0.00;99.90;;;;;;20669301;28;20033;-76
2023/02/14 07:27:25;;;;;;;121.15;30.55;;;-0.10;99.90;;;;;;20679764;28;20034;-77
2023/02/14 07:37:26;;;;;;;130.77;32.40;;;0.00;99.90;;;;;;20702865;28;20420;-78
2023/02/14 07:47:27;;;;;;;136.90;32.83;;;0.20;99.90;;;;;;20681858;28;20133;-76
2023/02/14 07:57:28;;;;;;;111.20;29.65;;;0.20;99.90;;;;;;20708888;28;20026;-77
2023/02/14 08:07:29;;;;;;;118.95;30.08;;;0.20;99.90;;;;;;20714400;28;20022;-77
2023/02/14 08:17:29;;;;;;;104.97;29.25;;;0.20;99.90;;;;;;20664039;28;20073;-75
2023/02/14 08:27:30;;;;;;;123.20;30.33;;;0.30;99.90;;;;;;20703731;28;20385;-76
2023/02/14 08:37:31;;;;;;;121.50;31.52;;;0.50;99.90;;;;;;20660598;28;20033;-75
2023/02/14 08:47:37;;;;;;;99.30;25.33;;;0.50;99.90;;;;;;20713291;28;20036;-77
2023/02/14 08:57:38;;;;;;;110.72;29.80;;;1.40;99.90;;;;;;20650838;28;20030;-77
2023/02/14 09:07:38;;;;;;;83.70;27.52;;;1.90;99.90;;;;;;20664492;28;20164;-76
2023/02/14 09:17:39;;;;;;;95.82;28.63;;;1.40;99.90;;;;;;20675814;28;20046;-76
2023/02/14 09:27:40;;;;;;;83.82;25.38;;;1.20;99.90;;;;;;20670033;28;20038;-76
2023/02/14 09:37:41;;;;;;;73.80;24.80;;;1.20;99.90;;;;;;20737315;28;20038;-76
2023/02/14 09:48:07;;;;;;;96.07;30.08;;;1.10;99.90;;;;;;20744261;28;20120;-76
2023/02/14 09:58:18;;;;;;;96.03;28.55;;;1.10;99.90;;;;;;20670759;28;20039;-76
2023/02/14 10:09:01;;;;;;;99.47;30.48;;;1.30;99.90;;;;;;20668216;28;20508;-76
2023/02/14 10:19:25;;;;;;;85.00;28.48;;;1.30;99.90;;;;;;20688345;28;20037;-76
2023/02/14 10:29:26;;;;;;;98.90;30.88;;;1.50;99.90;;;;;;20669791;28;20093;-76
2023/02/14 10:39:41;;;;;;;83.93;28.13;;;1.60;99.90;;;;;;20667648;28;20488;-77
2023/02/14 10:49:53;;;;;;;83.78;27.17;;;1.80;99.90;;;;;;20726945;28;20049;-76
2023/02/14 11:00:12;;;;;;;73.10;26.17;;;2.20;99.90;;;;;;20697713;28;20030;-76
2023/02/14 11:10:13;;;;;;;79.10;26.02;;;2.00;99.90;;;;;;20714950;28;20118;-76
2023/02/14 11:20:31;;;;;;;78.35;27.15;;;2.30;99.90;;;;;;20711335;28;20525;-76
2023/02/14 11:30:44;;;;;;;64.55;25.13;;;2.20;99.90;;;;;;20693683;28;20026;-75
2023/02/14 11:40:54;;;;;;;77.75;27.85;;;2.20;99.90;;;;;;20756130;28;20412;-76
2023/02/14 11:50:56;;;;;;;61.05;25.52;;;2.40;99.90;;;;;;20731777;28;20430;-76
2023/02/14 12:00:57;;;;;;;65.65;26.42;;;2.70;99.90;;;;;;20671842;28;20027;-75
2023/02/14 12:11:04;;;;;;;60.63;25.08;;;2.80;99.90;;;;;;20672365;28;20034;-75
2023/02/14 12:21:17;;;;;;;60.03;23.92;;;3.10;99.90;;;;;;20686613;28;20041;-76
2023/02/14 12:31:18;;;;;;;71.38;27.48;;;2.90;99.90;;;;;;20675272;28;20509;-75
2023/02/14 12:41:25;;;;;;;71.50;28.25;;;3.00;99.90;;;;;;20742296;28;20064;-76
2023/02/14 12:51:33;;;;;;;65.10;24.95;;;3.00;99.90;;;;;;20635034;28;20045;-75
2023/02/14 13:01:54;;;;;;;69.63;26.50;;;3.10;99.90;;;;;;20625391;28;20038;-76
2023/02/14 13:11:59;;;;;;;69.05;27.50;;;3.00;99.90;;;;;;20664759;28;20089;-76
2023/02/14 13:22:02;;;;;;;99.70;38.42;;;3.10;99.90;;;;;;20664474;28;20042;-75
2023/02/14 13:32:03;;;;;;;66.68;26.15;;;3.40;99.90;;;;;;20666117;28;20038;-75
2023/02/14 13:42:05;;;;;;;66.97;26.48;;;3.60;99.90;;;;;;20667227;28;20029;-75
2023/02/14 13:52:06;;;;;;;61.95;25.00;;;3.90;99.90;;;;;;20663181;28;20042;-75
2023/02/14 14:02:25;;;;;;;58.10;23.27;;;3.60;99.90;;;;;;20662645;28;20472;-76
2023/02/14 14:12:26;;;;;;;55.20;23.83;;;4.20;99.90;;;;;;20662836;28;20034;-76
2023/02/14 14:22:27;;;;;;;;;;;6.10;99.90;;;;;;20662732;28;20081;-75
2023/02/14 14:32:36;;;;;;;52.15;21.27;;;6.40;99.90;;;;;;20662023;28;19913;-75
2023/02/14 14:42:39;;;;;;;49.92;21.90;;;6.90;99.90;;;;;;20670344;28;20050;-76
2023/02/14 14:53:00;;;;;;;52.63;22.75;;;7.00;99.90;;;;;;20670573;28;20031;-76
2023/02/14 15:03:01;;;;;;;49.73;20.70;;;6.90;99.90;;;;;;20652168;28;20042;-75
2023/02/14 15:23:23;;;;;;;46.33;20.48;;;6.00;99.90;;;;;;20683884;28;20390;-76
2023/02/14 15:33:25;;;;;;;43.55;20.90;;;6.70;99.90;;;;;;20692189;28;20104;-75
2023/02/14 15:43:35;;;;;;;50.38;22.67;;;6.20;99.90;;;;;;20684026;28;20030;-75
2023/02/14 15:53:41;;;;;;;48.80;19.90;;;5.50;99.90;;;;;;20683513;28;20045;-75
2023/02/14 16:03:50;;;;;;;51.58;21.20;;;5.80;99.90;;;;;;20681947;28;20050;-76
2023/02/14 16:13:52;;;;;;;48.88;20.58;;;5.50;99.90;;;;;;20678522;28;20031;-75
2023/02/14 16:24:10;;;;;;;50.25;21.65;;;4.60;99.90;;;;;;20678260;28;20023;-76
2023/02/14 16:34:12;;;;;;;54.00;23.17;;;4.00;99.90;;;;;;20679106;28;20081;-75
2023/02/14 16:44:16;;;;;;;51.90;20.85;;;3.70;99.90;;;;;;20674930;28;20049;-76
2023/02/14 16:54:19;;;;;;;53.63;21.98;;;3.50;99.90;;;;;;20668374;28;20038;-76
2023/02/14 17:04:20;;;;;;;64.25;22.63;;;3.10;99.90;;;;;;20680905;28;20043;-75
2023/02/14 17:14:25;;;;;;;64.57;24.02;;;2.80;99.90;;;;;;20672636;28;20034;-75
2023/02/14 17:24:25;;;;;;;67.28;23.92;;;2.60;99.90;;;;;;20670905;28;20038;-75
2023/02/14 17:34:31;;;;;;;61.65;24.10;;;2.40;99.90;;;;;;20693125;28;20042;-76
2023/02/14 17:44:34;;;;;;;68.78;25.85;;;2.30;99.90;;;;;;20679876;28;20057;-76
2023/02/14 17:54:36;;;;;;;60.88;25.55;;;2.10;99.90;;;;;;20675654;28;20160;-76
2023/02/14 18:04:37;;;;;;;72.18;25.77;;;1.70;99.90;;;;;;20692565;28;20026;-75
2023/02/14 18:14:38;;;;;;;70.20;26.40;;;1.70;99.90;;;;;;20703685;28;20033;-75
2023/02/14 18:24:39;;;;;;;74.78;30.60;;;1.80;99.90;;;;;;20695637;28;20508;-75
2023/02/14 18:34:40;;;;;;;70.68;25.60;;;2.00;99.90;;;;;;20722897;28;20478;-75
2023/02/14 18:44:40;;;;;;;74.93;27.75;;;1.90;99.90;;;;;;20709555;28;20118;-75
2023/02/14 18:54:42;;;;;;;67.60;24.55;;;2.10;99.90;;;;;;20700679;28;20102;-74
2023/02/14 19:04:43;;;;;;;67.57;24.92;;;1.80;99.90;;;;;;20699181;28;20034;-75
2023/02/14 19:14:44;;;;;;;58.15;23.27;;;1.50;99.90;;;;;;20722445;28;20030;-75
2023/02/14 19:24:45;;;;;;;69.00;25.98;;;1.20;99.90;;;;;;20718252;28;20030;-75
2023/02/14 19:34:47;;;;;;;62.08;23.80;;;1.30;99.90;;;;;;20715072;28;20034;-75
2023/02/14 19:44:47;;;;;;;73.05;26.92;;;1.10;99.90;;;;;;20708019;28;20117;-75
2023/02/14 19:54:48;;;;;;;80.72;28.38;;;1.10;99.90;;;;;;20694551;28;20065;-75
2023/02/14 20:04:49;;;;;;;83.47;28.35;;;1.20;99.90;;;;;;20688337;28;20089;-75
2023/02/14 20:14:52;;;;;;;76.35;26.58;;;1.10;99.90;;;;;;20721746;28;20025;-76
2023/02/14 20:24:53;;;;;;;80.53;27.15;;;1.10;99.90;;;;;;20716342;28;20515;-76
2023/02/14 20:34:54;;;;;;;71.05;26.55;;;1.00;99.90;;;;;;20733604;28;20037;-75
2023/02/14 20:44:55;;;;;;;69.03;25.83;;;0.90;99.90;;;;;;20694173;28;20026;-75
2023/02/14 20:54:56;;;;;;;77.22;28.30;;;0.50;99.90;;;;;;20663362;28;20161;-75
2023/02/14 21:04:59;;;;;;;74.10;27.23;;;0.50;99.90;;;;;;20679757;28;20061;-75
2023/02/14 21:14:59;;;;;;;92.25;30.60;;;0.40;99.90;;;;;;20701395;28;20096;-75
2023/02/14 21:25:00;;;;;;;187.93;30.38;;;0.40;99.90;;;;;;20687009;28;20057;-75
2023/02/14 21:35:01;;;;;;;148.75;28.88;;;0.20;99.90;;;;;;20649256;28;20449;-73
2023/02/14 21:55:22;;;;;;;162.40;32.15;;;0.10;99.90;;;;;;20639762;28;20038;-74
2023/02/14 22:05:24;;;;;;;350.75;39.58;;;0.00;99.90;;;;;;20717398;28;20466;-74
2023/02/14 22:15:24;;;;;;;159.60;32.75;;;0.00;99.90;;;;;;20640215;28;20037;-75
2023/02/14 22:25:25;;;;;;;97.50;27.98;;;0.10;99.90;;;;;;20616242;28;20034;-75
2023/02/14 22:35:26;;;;;;;148.65;28.52;;;0.10;99.90;;;;;;20646439;28;20041;-75
2023/02/14 22:45:27;;;;;;;122.72;27.08;;;-0.20;99.90;;;;;;20661328;28;20553;-76
2023/02/14 22:55:28;;;;;;;156.80;26.95;;;-0.20;99.90;;;;;;20727399;28;20475;-74
2023/02/14 23:05:29;;;;;;;172.77;29.33;;;-0.20;99.90;;;;;;20660621;28;20037;-75
2023/02/14 23:25:50;;;;;;;197.23;31.92;;;-0.30;99.90;;;;;;20674623;28;20145;-75
2023/02/14 23:35:51;;;;;;;119.90;26.52;;;-0.50;99.90;;;;;;20672964;28;20065;-75
2023/02/14 23:45:51;;;;;;;117.72;27.63;;;-0.40;99.90;;;;;;20673312;28;20088;-75
2023/02/14 23:55:52;;;;;;;86.72;27.40;;;-0.50;99.90;;;;;;20669507;28;20545;-76
